Time;durP1;ratioP1;P1;durP2;ratioP2;P2;SDS_P1;SDS_P2;PMS_P1;PMS_P2;Temp;Humidity;BMP_temperature;BMP_pressure;BME280_temperature;BME280_humidity;BME280_pressure;Samples;Min_cycle;Max_cycle;Signal;HPM_P1;HPM_P2
2021/01/19 00:00:00;;;;;;;89.07;50.78;;;;;;;2.27;58.14;102299.69;5030060;28;20041;-68
2021/01/19 00:02:26;;;;;;;84.95;51.00;;;;;;;2.25;58.35;102303.13;5032585;28;20053;-68
2021/01/19 00:04:53;;;;;;;86.47;50.63;;;;;;;2.23;58.26;102299.66;5033324;28;20049;-68
2021/01/19 00:07:19;;;;;;;85.22;51.50;;;;;;;2.19;58.13;102298.78;5032080;28;20048;-68
2021/01/19 00:09:45;;;;;;;82.22;52.10;;;;;;;2.15;58.12;102299.63;5033141;28;20092;-68
2021/01/19 00:12:11;;;;;;;81.18;50.42;;;;;;;2.13;57.94;102296.16;5033058;28;20057;-68
2021/01/19 00:14:37;;;;;;;73.38;47.10;;;;;;;2.08;57.77;102288.41;5032790;28;20482;-68
2021/01/19 00:17:03;;;;;;;76.50;48.22;;;;;;;2.06;57.66;102289.25;5033135;28;20122;-68
2021/01/19 00:19:29;;;;;;;76.30;48.45;;;;;;;2.03;57.51;102291.81;5032931;28;20049;-68
2021/01/19 00:21:55;;;;;;;68.15;46.22;;;;;;;2.01;57.52;102297.00;5032303;28;20061;-68
2021/01/19 00:24:21;;;;;;;69.47;47.25;;;;;;;1.99;57.35;102290.06;5032782;28;20049;-68
2021/01/19 00:26:48;;;;;;;71.13;47.58;;;;;;;1.96;57.24;102283.16;5032970;28;20423;-68
2021/01/19 00:29:14;;;;;;;73.43;47.50;;;;;;;1.93;57.34;102276.25;5032864;28;20049;-68
2021/01/19 00:31:40;;;;;;;70.30;48.00;;;;;;;1.90;57.39;102272.78;5032011;28;20096;-68
2021/01/19 00:34:06;;;;;;;66.15;45.95;;;;;;;1.87;57.46;102267.59;5033053;28;20053;-68
2021/01/19 00:36:33;;;;;;;67.47;46.30;;;;;;;1.82;57.52;102270.16;5032559;28;20049;-68
2021/01/19 00:38:59;;;;;;;69.72;47.38;;;;;;;1.82;57.66;102270.16;5032976;28;20220;-68
2021/01/19 00:41:25;;;;;;;65.65;45.33;;;;;;;1.79;57.72;102273.59;5032574;28;20041;-68
2021/01/19 00:43:51;;;;;;;69.00;48.60;;;;;;;1.77;57.66;102267.53;5032609;28;20049;-68
2021/01/19 00:46:17;;;;;;;69.50;47.05;;;;;;;1.74;57.42;102272.72;5032678;28;20076;-68
2021/01/19 00:48:43;;;;;;;65.20;45.58;;;;;;;1.70;57.40;102277.84;5032597;28;20052;-68
2021/01/19 00:51:09;;;;;;;72.00;48.15;;;;;;;1.64;57.22;102276.13;5032310;28;20050;-68
2021/01/19 00:53:35;;;;;;;68.15;48.65;;;;;;;1.58;56.85;102283.84;5032407;28;20060;-68
2021/01/19 00:56:01;;;;;;;76.78;51.33;;;;;;;1.54;56.96;102282.09;5032669;28;20395;-68
2021/01/19 00:58:27;;;;;;;82.47;53.63;;;;;;;1.51;56.99;102282.06;5032412;28;20060;-68
2021/01/19 01:00:53;;;;;;;79.90;51.95;;;;;;;1.48;57.20;102284.66;5032364;28;20103;-68
2021/01/19 01:03:20;;;;;;;81.72;54.97;;;;;;;1.42;57.19;102276.00;5032376;28;20052;-68
2021/01/19 01:05:47;;;;;;;92.70;57.00;;;;;;;1.42;57.44;102277.69;5032053;28;20517;-68
2021/01/19 01:08:13;;;;;;;80.15;52.20;;;;;;;1.38;57.69;102274.22;5032358;28;20052;-68
2021/01/19 01:10:39;;;;;;;78.80;50.25;;;;;;;1.36;57.87;102280.25;5031117;28;20053;-68
2021/01/19 01:13:05;;;;;;;81.78;51.55;;;;;;;1.29;58.24;102282.78;5032109;28;20048;-68
2021/01/19 01:15:36;;;;;;;73.28;50.17;;;;;;;1.23;58.34;102279.28;5031912;28;20133;-68
2021/01/19 01:18:10;;;;;;;74.30;50.47;;;;;;;1.19;58.56;102285.31;5032344;28;20406;-68
2021/01/19 01:20:36;;;;;;;72.28;48.05;;;;;;;1.12;58.85;102276.66;5032080;28;20073;-68
2021/01/19 01:23:02;;;;;;;71.97;47.65;;;;;;;1.10;58.78;102281.78;5031989;28;20045;-68
2021/01/19 01:25:28;;;;;;;72.10;48.25;;;;;;;1.09;58.96;102277.50;5032106;28;20050;-68
2021/01/19 01:27:55;;;;;;;69.00;48.08;;;;;;;1.09;58.91;102280.06;5032203;28;20049;-68
2021/01/19 01:30:21;;;;;;;70.90;47.53;;;;;;;1.10;59.00;102284.38;5031909;28;20049;-68
2021/01/19 01:32:50;;;;;;;68.20;46.60;;;;;;;1.04;58.79;102278.28;5031939;28;20042;-68
2021/01/19 01:35:21;;;;;;;64.28;45.75;;;;;;;0.97;59.14;102290.31;5032105;28;20099;-68
2021/01/19 01:37:55;;;;;;;69.55;45.08;;;;;;;0.98;59.03;102279.13;5031710;28;20114;-68
2021/01/19 01:40:23;;;;;;;72.25;45.25;;;;;;;0.95;58.82;102279.06;5018096;28;20045;-68
2021/01/19 01:42:57;;;;;;;67.63;48.28;;;;;;;0.92;58.75;102282.50;5032557;28;20045;-68
2021/01/19 01:45:26;;;;;;;67.65;46.28;;;;;;;0.87;58.93;102276.44;5035794;28;20050;-68
2021/01/19 01:47:57;;;;;;;71.72;48.00;;;;;;;0.85;58.96;102278.16;5036054;28;20049;-68
2021/01/19 01:50:24;;;;;;;69.03;47.28;;;;;;;0.91;58.70;102273.00;5035401;28;20099;-68
2021/01/19 01:52:52;;;;;;;70.28;47.42;;;;;;;0.88;58.57;102270.41;5035870;28;20041;-68
2021/01/19 01:55:19;;;;;;;69.40;47.92;;;;;;;0.84;58.48;102255.75;5035629;28;20045;-68
2021/01/19 01:57:46;;;;;;;72.78;48.65;;;;;;;0.87;58.24;102257.50;5035893;28;20072;-68
2021/01/19 02:00:13;;;;;;;69.30;47.80;;;;;;;0.88;58.37;102256.66;5035652;28;20045;-68
2021/01/19 02:02:52;;;;;;;67.05;46.10;;;;;;;0.89;58.36;102254.06;5035733;28;20498;-68
2021/01/19 02:05:19;;;;;;;70.18;46.72;;;;;;;0.90;58.35;102250.63;5035454;28;20409;-68
2021/01/19 02:07:59;;;;;;;65.10;46.00;;;;;;;0.91;58.36;102256.66;5035446;28;20052;-68
2021/01/19 02:10:35;;;;;;;70.35;47.75;;;;;;;0.90;58.11;102250.63;5035442;28;20067;-68
2021/01/19 02:13:06;;;;;;;;;;;;;;;0.90;58.38;102249.75;5035921;28;20046;-68
2021/01/19 02:15:43;;;;;;;71.10;47.50;;;;;;;0.93;58.46;102252.38;5035230;28;19921;-68
2021/01/19 02:18:31;;;;;;;74.60;49.75;;;;;;;0.93;58.15;102260.97;5035385;28;20042;-68
2021/01/19 02:21:24;;;;;;;72.90;49.67;;;;;;;0.94;58.33;102246.31;5035052;28;20075;-68
2021/01/19 02:24:08;;;;;;;75.30;47.58;;;;;;;0.93;58.16;102242.88;5035401;28;20520;-68
2021/01/19 02:27:13;;;;;;;80.38;49.78;;;;;;;0.93;58.27;102250.63;5033926;28;20461;-68
2021/01/19 02:30:03;;;;;;;76.32;47.72;;;;;;;0.95;58.08;102253.22;5034954;28;20540;-68
2021/01/19 02:32:44;;;;;;;68.72;47.65;;;;;;;0.95;58.21;102259.28;5034819;28;20053;-68
2021/01/19 02:35:21;;;;;;;70.57;47.72;;;;;;;0.95;58.22;102253.22;5034946;28;20048;-68
2021/01/19 02:37:57;;;;;;;71.25;47.15;;;;;;;0.95;58.31;102243.78;5035002;28;20057;-68
2021/01/19 02:40:24;;;;;;;;;;;;;;;0.93;58.50;102252.38;5035474;28;20051;-68
2021/01/19 02:43:19;;;;;;;66.38;47.03;;;;;;;0.94;58.60;102249.78;5034877;28;19925;-68
2021/01/19 02:45:46;;;;;;;64.15;46.05;;;;;;;0.93;58.74;102239.44;5034759;28;20056;-68
2021/01/19 02:48:13;;;;;;;62.97;44.53;;;;;;;0.91;58.52;102249.75;5034627;28;20048;-68
2021/01/19 02:50:39;;;;;;;63.40;45.17;;;;;;;0.88;58.41;102238.56;5034383;28;20552;-68
2021/01/19 02:53:06;;;;;;;64.88;46.17;;;;;;;0.86;58.54;102248.00;5034889;28;20056;-68
2021/01/19 02:55:32;;;;;;;62.35;43.67;;;;;;;0.86;58.29;102250.59;5033945;28;20052;-68
2021/01/19 02:58:16;;;;;;;64.68;45.58;;;;;;;0.86;58.37;102253.16;5034612;28;20053;-68
2021/01/19 03:01:01;;;;;;;63.78;44.90;;;;;;;0.83;58.40;102248.84;5034316;28;20049;-68
2021/01/19 03:03:34;;;;;;;59.65;42.60;;;;;;;0.78;58.23;102241.03;5034243;28;20046;-68
2021/01/19 03:06:20;;;;;;;74.32;49.72;;;;;;;0.75;58.28;102241.03;5034511;28;20474;-68
2021/01/19 03:08:48;;;;;;;87.97;53.90;;;;;;;0.73;58.40;102234.13;5034245;28;20059;-68
2021/01/19 03:11:16;;;;;;;80.50;51.17;;;;;;;0.71;58.17;102231.53;5034258;28;20065;-68
2021/01/19 03:13:51;;;;;;;72.25;48.20;;;;;;;0.69;57.97;102232.38;5034177;28;20053;-68
2021/01/19 03:16:20;;;;;;;75.53;49.60;;;;;;;0.65;57.75;102226.31;5034006;28;20065;-68
2021/01/19 03:18:48;;;;;;;74.68;47.30;;;;;;;0.63;58.03;102225.41;5034184;28;20075;-68
2021/01/19 03:21:14;;;;;;;70.20;48.15;;;;;;;0.63;57.86;102231.44;5034150;28;20490;-68
2021/01/19 03:23:41;;;;;;;69.57;46.58;;;;;;;0.65;57.74;102228.88;5034109;28;20042;-68
2021/01/19 03:26:08;;;;;;;74.75;48.08;;;;;;;0.65;57.67;102226.31;5034015;28;20045;-68
2021/01/19 03:28:35;;;;;;;71.75;47.80;;;;;;;0.63;57.94;102226.25;5034010;28;20045;-68
2021/01/19 03:31:02;;;;;;;66.68;46.53;;;;;;;0.64;57.96;102234.91;5033989;28;20057;-68
2021/01/19 03:33:29;;;;;;;63.05;45.40;;;;;;;0.63;58.08;102236.59;5033812;28;20041;-68
2021/01/19 03:35:56;;;;;;;69.10;46.42;;;;;;;0.64;58.23;102228.00;5033640;28;20046;-68
2021/01/19 03:38:22;;;;;;;65.03;45.42;;;;;;;0.63;58.21;102234.00;5033833;28;20045;-68
2021/01/19 03:40:48;;;;;;;64.30;44.67;;;;;;;0.63;58.30;102234.00;5033835;28;20061;-68
2021/01/19 03:43:14;;;;;;;64.80;47.17;;;;;;;0.63;58.22;102236.59;5033832;28;20045;-68
2021/01/19 03:45:40;;;;;;;62.35;44.70;;;;;;;0.63;58.36;102231.44;5033703;28;20042;-68
2021/01/19 03:48:07;;;;;;;63.28;43.83;;;;;;;0.63;58.21;102230.59;5033670;28;20103;-68
2021/01/19 03:50:33;;;;;;;62.40;44.53;;;;;;;0.62;58.01;102223.69;5033174;28;20049;-68
2021/01/19 03:52:59;;;;;;;60.83;44.22;;;;;;;0.61;58.06;102229.69;5033905;28;20057;-68
2021/01/19 03:55:29;;;;;;;60.97;44.78;;;;;;;0.57;58.01;102223.66;5033708;28;20044;-68
2021/01/19 03:57:56;;;;;;;63.60;44.65;;;;;;;0.57;57.88;102225.34;5033586;28;20045;-68
2021/01/19 04:00:22;;;;;;;61.50;44.08;;;;;;;0.57;58.02;102221.06;5033273;28;20497;-68
2021/01/19 04:02:49;;;;;;;63.55;44.58;;;;;;;0.57;58.19;102231.41;5029898;28;20049;-68
2021/01/19 04:05:15;;;;;;;65.95;44.63;;;;;;;0.55;58.06;102221.91;5030385;28;20061;-68
2021/01/19 04:07:42;;;;;;;65.95;45.92;;;;;;;0.55;58.14;102227.06;5028887;28;20049;-68
2021/01/19 04:10:11;;;;;;;64.75;44.42;;;;;;;0.52;58.04;102225.34;5030035;28;20481;-68
2021/01/19 04:12:38;;;;;;;70.78;47.90;;;;;;;0.48;58.02;102216.69;5029796;28;20061;-68
2021/01/19 04:15:06;;;;;;;77.38;50.80;;;;;;;0.47;58.04;102227.88;5029968;28;20131;-68
2021/01/19 04:17:32;;;;;;;73.75;48.20;;;;;;;0.45;58.20;102229.56;5029643;28;20045;-68
2021/01/19 04:19:59;;;;;;;66.15;44.17;;;;;;;0.44;57.89;102232.13;5029927;28;20056;-68
2021/01/19 04:22:25;;;;;;;59.00;42.25;;;;;;;0.41;57.79;102227.81;5029816;28;20058;-68
2021/01/19 04:24:51;;;;;;;60.30;43.03;;;;;;;0.39;57.67;102223.47;5029650;28;20068;-68
2021/01/19 04:27:19;;;;;;;61.63;44.17;;;;;;;0.37;57.59;102223.47;5029521;28;20057;-68
2021/01/19 04:29:45;;;;;;;60.80;43.40;;;;;;;0.37;57.62;102232.91;5029340;28;20144;-68
2021/01/19 04:32:11;;;;;;;61.55;41.80;;;;;;;0.34;57.72;102231.16;5029777;28;20053;-68
2021/01/19 04:34:38;;;;;;;56.00;41.05;;;;;;;0.34;57.42;102241.50;5029508;28;20559;-68
2021/01/19 04:37:04;;;;;;;57.05;42.28;;;;;;;0.31;57.48;102231.16;5029198;28;20053;-68
2021/01/19 04:39:30;;;;;;;60.08;43.30;;;;;;;0.27;57.52;102227.66;5029316;28;20053;-68
2021/01/19 04:41:56;;;;;;;60.83;42.17;;;;;;;0.24;57.42;102232.81;5029376;28;20057;-68
2021/01/19 04:44:25;;;;;;;58.45;42.42;;;;;;;0.20;57.16;102231.03;5028124;28;20459;-68
2021/01/19 04:46:52;;;;;;;61.70;45.53;;;;;;;0.18;57.20;102234.44;5029037;28;20049;-68
2021/01/19 04:49:19;;;;;;;60.75;42.63;;;;;;;0.14;57.40;102229.25;5029260;28;20053;-69
2021/01/19 04:51:47;;;;;;;61.03;44.08;;;;;;;0.13;57.41;102226.66;5028679;28;20050;-68
2021/01/19 04:54:17;;;;;;;58.78;42.03;;;;;;;0.13;57.16;102243.00;5029221;28;20072;-68
2021/01/19 04:57:19;;;;;;;63.55;44.65;;;;;;;0.11;57.53;102249.00;5029327;28;20071;-68
2021/01/19 04:59:53;;;;;;;63.78;44.47;;;;;;;0.11;57.41;102238.69;5029065;28;20050;-68
2021/01/19 05:02:31;;;;;;;65.93;45.83;;;;;;;0.12;57.61;102245.56;5028843;28;20049;-68
2021/01/19 05:05:34;;;;;;;63.60;43.83;;;;;;;0.11;57.67;102233.50;5029032;28;20045;-67
2021/01/19 05:08:15;;;;;;;66.55;44.63;;;;;;;0.10;57.73;102232.66;5061272;28;20048;-67
2021/01/19 05:10:53;;;;;;;65.75;43.92;;;;;;;0.10;57.90;102242.09;5028697;28;20056;-67
2021/01/19 05:13:47;;;;;;;62.92;44.72;;;;;;;0.12;57.95;102233.53;5028835;28;20050;-67
2021/01/19 05:16:29;;;;;;;62.33;44.08;;;;;;;0.14;57.84;102247.31;5028831;28;20049;-67
2021/01/19 05:18:55;;;;;;;62.33;43.17;;;;;;;0.14;58.01;102234.41;5028675;28;20046;-67
2021/01/19 05:21:22;;;;;;;60.17;42.63;;;;;;;0.14;57.91;102231.84;5027425;28;20086;-67
2021/01/19 05:23:48;;;;;;;59.58;43.95;;;;;;;0.15;58.04;102236.16;5028878;28;20049;-67
2021/01/19 05:26:16;;;;;;;59.95;43.13;;;;;;;0.14;58.24;102239.56;5028769;28;20096;-67
2021/01/19 05:28:49;;;;;;;60.88;42.42;;;;;;;0.13;57.95;102245.59;5028863;28;20119;-67
2021/01/19 05:31:15;;;;;;;56.28;42.13;;;;;;;0.13;58.11;102255.91;5028669;28;20058;-68
2021/01/19 05:33:55;;;;;;;59.97;43.25;;;;;;;0.12;58.13;102248.16;5028802;28;20037;-67
2021/01/19 05:36:24;;;;;;;58.97;43.03;;;;;;;0.12;58.28;102261.91;5028527;28;20060;-67
2021/01/19 05:38:59;;;;;;;64.47;43.70;;;;;;;0.11;58.04;102255.00;5028450;28;20049;-68
2021/01/19 05:41:35;;;;;;;57.88;41.30;;;;;;;0.08;58.08;102257.56;5028627;28;20049;-67
2021/01/19 05:44:14;;;;;;;;;;;;;;;0.06;57.78;102245.50;5029230;28;20052;-67
2021/01/19 05:46:43;;;;;;;62.75;43.75;;;;;;;0.07;57.66;102254.97;5028531;28;20293;-67
2021/01/19 05:49:15;;;;;;;58.00;41.13;;;;;;;0.04;57.65;102260.09;5028983;28;20045;-67
2021/01/19 05:51:46;;;;;;;60.67;42.25;;;;;;;0.01;57.60;102262.66;5039767;28;20500;-67
2021/01/19 05:54:22;;;;;;;62.80;42.33;;;;;;;0.01;57.60;102272.97;5028782;28;20045;-67
2021/01/19 05:56:49;;;;;;;61.78;40.83;;;;;;;-0.01;57.75;102271.22;5028391;28;20497;-67
2021/01/19 05:59:39;;;;;;;66.43;44.92;;;;;;;-0.02;57.73;102279.81;5029377;28;20405;-66
2021/01/19 06:02:14;;;;;;;62.35;43.65;;;;;;;-0.03;57.96;102278.09;5039489;28;20045;-65
2021/01/19 06:04:48;;;;;;;66.82;45.22;;;;;;;-0.05;58.06;102272.06;5028200;28;20072;-65
2021/01/19 06:07:25;;;;;;;65.68;45.08;;;;;;;-0.04;57.99;102283.22;5027949;28;20049;-65
2021/01/19 06:09:52;;;;;;;62.15;43.08;;;;;;;-0.07;58.00;102280.63;5027950;28;20509;-65
2021/01/19 06:12:20;;;;;;;61.40;43.35;;;;;;;-0.10;58.38;102276.28;5028297;28;20057;-65
2021/01/19 06:14:50;;;;;;;64.03;43.55;;;;;;;-0.13;58.56;102276.22;5027707;28;20048;-65
2021/01/19 06:17:23;;;;;;;63.20;41.47;;;;;;;-0.13;58.81;102273.66;5028340;28;20057;-65
2021/01/19 06:20:02;;;;;;;65.00;42.20;;;;;;;-0.16;59.04;102283.94;5027983;28;20046;-66
2021/01/19 06:22:30;;;;;;;61.35;42.83;;;;;;;-0.18;59.17;102283.94;5027905;28;20071;-67
2021/01/19 06:24:57;;;;;;;63.47;43.42;;;;;;;-0.17;59.29;102290.84;5028629;28;20053;-68
2021/01/19 06:27:23;;;;;;;66.28;43.13;;;;;;;-0.15;59.45;102287.38;5028426;28;20041;-66
2021/01/19 06:29:51;;;;;;;64.68;42.78;;;;;;;-0.16;59.55;102296.84;5028539;28;20052;-67
2021/01/19 06:32:18;;;;;;;62.95;42.55;;;;;;;-0.17;59.71;102297.69;5031807;28;20060;-66
2021/01/19 06:34:45;;;;;;;65.03;41.42;;;;;;;-0.19;59.80;102301.94;5031672;28;20068;-65
2021/01/19 06:37:24;;;;;;;62.63;40.85;;;;;;;-0.24;60.01;102301.91;5031372;28;20041;-66
2021/01/19 06:40:00;;;;;;;64.75;42.75;;;;;;;-0.25;60.21;102305.34;5031481;28;20046;-64
2021/01/19 06:42:28;;;;;;;;;;;;;;;-0.26;60.33;102311.34;5032147;28;20509;-64
2021/01/19 06:44:56;;;;;;;63.92;40.38;;;;;;;-0.29;60.66;102306.16;5031402;28;19927;-65
2021/01/19 06:47:23;;;;;;;61.75;41.03;;;;;;;-0.30;60.61;102308.72;5031512;28;20050;-68
2021/01/19 06:49:57;;;;;;;69.05;43.00;;;;;;;0.19;68.06;102299.00;5031041;28;20449;-64
2021/01/19 06:52:34;;;;;;;66.47;42.20;;;;;;;0.32;66.24;102297.44;5030963;28;20045;-64
2021/01/19 06:55:20;;;;;;;58.40;39.20;;;;;;;0.18;63.11;102306.72;5029964;28;20052;-64
2021/01/19 06:58:09;;;;;;;62.90;39.75;;;;;;;-0.03;62.54;102313.34;5031049;28;20042;-64
2021/01/19 07:00:39;;;;;;;58.97;39.35;;;;;;;-0.20;62.75;102316.56;5031227;28;20124;-64
2021/01/19 07:03:36;;;;;;;60.08;38.80;;;;;;;-0.33;62.90;102317.28;5031038;28;20053;-65
2021/01/19 07:06:04;;;;;;;59.00;38.65;;;;;;;-0.30;64.00;102309.56;5030268;28;20072;-64
2021/01/19 07:08:50;;;;;;;65.68;41.75;;;;;;;-0.31;63.32;102320.72;5031033;28;20139;-65
2021/01/19 07:11:58;;;;;;;57.95;40.42;;;;;;;-0.28;63.15;102320.78;5030688;28;20050;-65
2021/01/19 07:14:39;;;;;;;64.18;41.53;;;;;;;-0.31;63.06;102319.88;5030933;28;20049;-64
2021/01/19 07:17:08;;;;;;;64.53;42.50;;;;;;;-0.35;62.89;102318.94;5023979;28;20127;-64
2021/01/19 07:19:46;;;;;;;67.75;43.35;;;;;;;-0.36;63.32;102310.31;5029167;28;20045;-64
2021/01/19 07:22:29;;;;;;;69.32;43.03;;;;;;;-0.35;63.18;102317.22;5022812;28;20513;-64
2021/01/19 07:24:56;;;;;;;68.43;42.45;;;;;;;-0.35;63.11;102324.09;5032295;28;20057;-64
2021/01/19 07:27:24;;;;;;;73.53;45.15;;;;;;;-0.37;63.27;102328.38;5036382;28;20399;-64
2021/01/19 07:29:51;;;;;;;69.53;44.08;;;;;;;-0.31;63.43;102335.34;5029895;28;20049;-64
2021/01/19 07:32:30;;;;;;;69.45;42.97;;;;;;;-0.30;63.49;102332.78;5029180;28;20045;-64
2021/01/19 07:35:00;;;;;;;69.68;44.20;;;;;;;-0.34;63.36;102338.75;5030517;28;20041;-65
2021/01/19 07:37:36;;;;;;;66.35;42.00;;;;;;;-0.38;63.53;102343.00;5029702;28;20399;-65
2021/01/19 07:40:19;;;;;;;74.03;43.90;;;;;;;-0.30;63.47;102342.25;5029220;28;20379;-65
2021/01/19 07:42:46;;;;;;;68.32;43.35;;;;;;;-0.32;63.51;102347.34;5029686;28;20493;-65
2021/01/19 07:45:13;;;;;;;73.45;44.13;;;;;;;-0.27;63.45;102343.13;5028674;28;20537;-65
2021/01/19 07:47:44;;;;;;;75.20;46.05;;;;;;;-0.23;63.27;102337.19;5029619;28;20076;-65
2021/01/19 07:50:18;;;;;;;70.40;44.35;;;;;;;-0.17;63.39;102341.56;5029724;28;20500;-65
2021/01/19 07:52:46;;;;;;;81.95;52.20;;;;;;;-0.12;63.27;102345.06;5029236;28;20046;-65
2021/01/19 07:55:19;;;;;;;189.18;106.93;;;;;;;-0.07;63.07;102345.13;5029657;28;20064;-65
2021/01/19 07:57:48;;;;;;;119.10;72.18;;;;;;;-0.04;63.13;102345.16;5029518;28;20052;-65
2021/01/19 08:00:21;;;;;;;95.28;57.30;;;;;;;-0.02;62.78;102339.16;5029580;28;20045;-65
2021/01/19 08:02:47;;;;;;;87.25;53.80;;;;;;;0.01;62.89;102343.50;5029771;28;20521;-65
2021/01/19 08:05:14;;;;;;;150.20;81.85;;;;;;;-0.02;63.24;102339.16;5029434;28;20052;-65
2021/01/19 08:07:42;;;;;;;158.05;87.88;;;;;;;-0.02;63.00;102340.91;5029388;28;20048;-65
2021/01/19 08:10:19;;;;;;;131.35;76.85;;;;;;;-0.01;62.84;102345.22;5029604;28;20055;-65
2021/01/19 08:12:59;;;;;;;167.73;97.07;;;;;;;-0.02;62.91;102341.75;5028997;28;20061;-65
2021/01/19 08:15:30;;;;;;;157.85;84.30;;;;;;;0.01;62.62;102348.66;5029381;28;20103;-65
2021/01/19 08:17:58;;;;;;;98.63;57.70;;;;;;;0.04;62.83;102340.97;5029223;28;20049;-65
2021/01/19 08:20:26;;;;;;;96.68;56.58;;;;;;;0.09;63.09;102341.91;5029553;28;20054;-65
2021/01/19 08:22:54;;;;;;;131.60;72.72;;;;;;;0.12;62.77;102356.56;5029260;28;20068;-65
2021/01/19 08:25:28;;;;;;;110.03;62.97;;;;;;;0.15;62.90;102360.06;5029124;28;20045;-65
2021/01/19 08:27:58;;;;;;;80.38;47.28;;;;;;;0.16;62.91;102355.75;5037187;28;20052;-65
2021/01/19 08:30:27;;;;;;;81.63;50.42;;;;;;;0.16;63.00;102358.34;5037575;28;20056;-65
2021/01/19 08:32:55;;;;;;;111.07;63.90;;;;;;;0.19;63.10;102366.13;5029053;28;20053;-65
2021/01/19 08:35:23;;;;;;;92.28;57.22;;;;;;;0.24;62.95;102364.47;5029173;28;20055;-64
2021/01/19 08:37:54;;;;;;;85.70;51.20;;;;;;;0.31;63.17;102353.34;5028328;28;20049;-65
2021/01/19 08:40:23;;;;;;;85.85;51.95;;;;;;;0.37;63.04;102347.41;5028149;28;20064;-65
2021/01/19 08:42:50;;;;;;;84.05;50.08;;;;;;;0.40;63.20;102347.44;5028380;28;20064;-65
2021/01/19 08:45:31;;;;;;;93.20;55.25;;;;;;;0.45;63.12;102347.50;5028877;28;20042;-65
2021/01/19 08:47:59;;;;;;;101.45;55.25;;;;;;;0.47;62.94;102349.25;5028441;28;20056;-65
2021/01/19 08:50:27;;;;;;;95.80;56.75;;;;;;;0.52;63.14;102349.31;5028240;28;20168;-65
2021/01/19 08:52:54;;;;;;;95.80;53.33;;;;;;;0.55;63.13;102356.22;5028347;28;20057;-65
2021/01/19 08:55:25;;;;;;;108.55;64.78;;;;;;;0.55;63.02;102354.50;5028680;28;20041;-65
2021/01/19 08:57:56;;;;;;;88.03;53.90;;;;;;;0.56;63.13;102348.50;5026888;28;20049;-65
2021/01/19 09:00:30;;;;;;;83.35;50.78;;;;;;;0.58;63.08;102351.06;5027673;28;20068;-66
2021/01/19 09:02:58;;;;;;;86.70;53.80;;;;;;;0.61;63.29;102348.50;5028396;28;20193;-65
2021/01/19 09:05:30;;;;;;;105.97;61.70;;;;;;;0.69;63.20;102343.47;5028241;28;20121;-65
2021/01/19 09:07:58;;;;;;;83.00;50.83;;;;;;;0.72;63.18;102336.59;5028365;28;20413;-66
2021/01/19 09:10:27;;;;;;;84.93;49.95;;;;;;;0.80;63.17;102345.28;5027379;28;20457;-65
2021/01/19 09:12:55;;;;;;;91.43;54.30;;;;;;;0.80;63.38;102347.88;5027062;28;20064;-66
2021/01/19 09:15:23;;;;;;;81.05;48.97;;;;;;;0.73;63.36;102346.06;5034331;28;20623;-66
2021/01/19 09:17:58;;;;;;;74.75;47.13;;;;;;;0.69;63.68;102343.47;5041870;28;20076;-67
2021/01/19 09:20:26;;;;;;;78.30;49.10;;;;;;;0.69;63.62;102341.72;5039140;28;20048;-66
2021/01/19 09:22:53;;;;;;;87.43;49.83;;;;;;;0.72;63.89;102348.66;5035063;28;20048;-67
2021/01/19 09:25:22;;;;;;;94.63;54.95;;;;;;;0.72;63.91;102344.31;5040872;28;20056;-67
2021/01/19 09:27:48;;;;;;;129.05;72.45;;;;;;;0.76;64.04;102334.91;5041825;28;20517;-67
2021/01/19 09:30:18;;;;;;;114.72;64.50;;;;;;;0.82;64.02;102340.13;5040517;28;20055;-66
2021/01/19 09:32:44;;;;;;;126.95;71.80;;;;;;;0.84;64.03;102343.59;5039031;28;20072;-66
2021/01/19 09:35:15;;;;;;;139.20;78.70;;;;;;;0.87;64.15;102340.19;5041588;28;20482;-66
2021/01/19 09:37:41;;;;;;;117.95;65.35;;;;;;;0.92;64.18;102347.13;5041570;28;20512;-66
2021/01/19 09:40:09;;;;;;;147.85;79.68;;;;;;;1.14;66.28;102339.56;5035717;28;20053;-66
2021/01/19 09:42:38;;;;;;;107.53;59.92;;;;;;;1.22;65.00;102337.91;5025973;28;20045;-67
2021/01/19 09:45:09;;;;;;;94.50;53.28;;;;;;;1.30;64.50;102343.16;5028125;28;20053;-64
2021/01/19 09:47:39;;;;;;;122.82;63.75;;;;;;;1.29;64.19;102341.41;5032338;28;20508;-67
2021/01/19 09:50:10;;;;;;;112.82;59.88;;;;;;;1.29;64.27;102337.09;5033833;28;20046;-67
2021/01/19 09:52:43;;;;;;;85.28;51.05;;;;;;;1.29;64.30;102342.25;5035686;28;20089;-66
2021/01/19 09:55:14;;;;;;;174.52;108.15;;;;;;;1.72;69.12;102344.28;5029279;28;20491;-67
2021/01/19 09:57:40;;;;;;;217.43;124.30;;;;;;;1.72;65.96;102341.69;5042040;28;20048;-66
2021/01/19 10:00:09;;;;;;;96.15;59.22;;;;;;;1.59;64.95;102338.19;5039950;28;20060;-67
2021/01/19 10:02:38;;;;;;;96.78;63.53;;;;;;;1.49;65.17;102326.03;5040237;28;20037;-67
2021/01/19 10:05:06;;;;;;;85.57;53.83;;;;;;;1.41;65.15;102326.00;5043345;28;20049;-67
2021/01/19 10:07:33;;;;;;;91.57;52.35;;;;;;;1.33;65.38;102329.38;5041301;28;20052;-68
2021/01/19 10:10:11;;;;;;;85.63;51.50;;;;;;;1.25;65.48;102322.41;5044893;28;20045;-66
2021/01/19 10:12:39;;;;;;;138.93;83.50;;;;;;;1.20;65.73;102310.31;5044862;28;20059;-67
2021/01/19 10:15:10;;;;;;;87.63;51.75;;;;;;;1.18;65.69;102305.13;5045195;28;20048;-66
2021/01/19 10:17:37;;;;;;;98.25;55.47;;;;;;;1.19;65.76;102293.91;5046171;28;20037;-66
2021/01/19 10:20:14;;;;;;;99.28;57.28;;;;;;;1.23;65.77;102298.28;5042797;28;20044;-66
2021/01/19 10:22:43;;;;;;;93.70;51.70;;;;;;;1.30;65.63;102294.00;5047086;28;20490;-65
2021/01/19 10:25:12;;;;;;;97.28;55.42;;;;;;;1.32;65.67;102297.47;5041356;28;20053;-65
2021/01/19 10:27:43;;;;;;;91.57;53.55;;;;;;;1.34;65.76;102300.94;5043641;28;20460;-66
2021/01/19 10:30:13;;;;;;;90.68;53.25;;;;;;;1.34;65.79;102298.34;5042648;28;20049;-66
2021/01/19 10:32:50;;;;;;;88.82;53.00;;;;;;;1.38;66.01;102291.47;5046129;28;20057;-66
2021/01/19 10:35:29;;;;;;;94.47;55.78;;;;;;;1.39;65.99;102290.63;5045250;28;20038;-66
2021/01/19 10:37:58;;;;;;;107.85;58.85;;;;;;;1.40;66.43;102290.63;5046993;28;20053;-66
2021/01/19 10:40:24;;;;;;;115.10;66.10;;;;;;;1.46;66.29;102285.50;5042236;28;20045;-66
2021/01/19 10:42:51;;;;;;;127.38;69.03;;;;;;;1.53;66.26;102281.22;5044541;28;20052;-66
2021/01/19 10:45:26;;;;;;;115.15;68.45;;;;;;;1.57;66.31;102285.53;5040443;28;20474;-67
2021/01/19 10:47:53;;;;;;;106.00;60.50;;;;;;;1.60;66.23;102283.00;5037138;28;20049;-66
2021/01/19 10:50:21;;;;;;;108.22;63.95;;;;;;;1.61;66.24;102271.78;5032835;28;20045;-66
2021/01/19 10:52:53;;;;;;;114.95;63.58;;;;;;;1.62;66.21;102273.50;5043529;28;20057;-66
2021/01/19 10:55:19;;;;;;;129.88;74.80;;;;;;;1.62;66.59;102267.47;5043754;28;20041;-66
2021/01/19 10:57:46;;;;;;;117.47;66.15;;;;;;;1.62;66.59;102260.56;5041231;28;20067;-66
2021/01/19 11:00:12;;;;;;;129.07;76.80;;;;;;;1.60;66.78;102271.75;5048320;28;20044;-66
2021/01/19 11:02:38;;;;;;;121.30;71.60;;;;;;;1.60;66.88;102271.75;5041289;28;20387;-66
2021/01/19 11:05:06;;;;;;;106.80;65.32;;;;;;;1.61;67.01;102286.44;5040687;28;20052;-66
2021/01/19 11:07:47;;;;;;;92.57;53.47;;;;;;;1.57;67.14;102284.69;5045261;28;20461;-66
2021/01/19 11:10:15;;;;;;;107.13;61.58;;;;;;;1.47;67.26;102273.41;5037109;28;20060;-66
2021/01/19 11:12:42;;;;;;;84.45;52.45;;;;;;;1.40;67.77;102266.50;5011347;28;20056;-66
2021/01/19 11:15:09;;;;;;;82.35;48.70;;;;;;;1.40;67.89;102261.31;5029600;28;20053;-66
2021/01/19 11:17:36;;;;;;;84.45;50.67;;;;;;;1.54;67.81;102253.63;5031791;28;20494;-66
2021/01/19 11:20:08;;;;;;;80.65;49.90;;;;;;;1.68;67.51;102240.78;5032279;28;20120;-66
2021/01/19 11:22:35;;;;;;;85.45;50.33;;;;;;;1.75;67.33;102240.81;5032451;28;20620;-66
2021/01/19 11:25:03;;;;;;;89.00;51.25;;;;;;;1.79;67.24;102234.78;5029912;28;20048;-66
2021/01/19 11:27:29;;;;;;;96.22;55.53;;;;;;;1.76;67.14;102241.66;5029628;28;20044;-66
2021/01/19 11:29:55;;;;;;;92.20;53.85;;;;;;;1.68;67.29;102238.19;5041227;28;20430;-66
2021/01/19 11:32:24;;;;;;;122.95;71.93;;;;;;;1.55;67.69;102238.13;5049914;28;20059;-65